バンダラナイケ国際空港の過去48時間の天気

バンダラナイケ国際空港 (Katunayake)

現在時刻: 5/26 06:51 +0530 (5/26 01:21 UTC) 以下の時間は現地時間です。

過去48時間のMETAR気象情報
時間 風向 風速(m/s) 視程 気温(℃) 湿度(%) 気圧(hPa) 天気現象
26 04:40 3 10km以上 25 100 1009 周辺で雷
26 03:40 南東 2 10km以上 25 100 1009 弱いしゅう雨
26 02:40 南南東 3 9000m 26 94 1009
26 01:40 南南東 2 9000m 25 100 1010
26 00:40 南南東 2 9000m 26 94 1011
25 23:40 2 9000m 26 94 1011
25 22:40 3 8000m 27 94 1011 弱いしゅう雨
25 21:40 南南西 4 10km以上 28 89 1011
25 19:40 南西 5 10km以上 28 84 1010
25 18:40 南南西 5 10km以上 28 84 1009
25 17:40 南西 5 10km以上 29 79 1008
25 16:40 南西 6 10km以上 29 79 1008
25 15:40 南西 6 10km以上 30 75 1008
25 13:40 南西 6 10km以上 30 79 1009
25 12:40 南西 5 10km以上 31 75 1010
25 11:40 南南西 5 10km以上 29 84 1011
25 10:40 南南西 3 10km以上 28 89 1011 弱いしゅう雨
25 09:40 南南東 3 10km以上 29 84 1012
25 08:40 3 10km以上 27 94 1011
25 07:40 南南東 4 10km以上 26 94 1010
25 04:40 南東 2 10km以上 24 100 1009
25 03:40 南南東 3 9000m 25 94 1009
25 02:40 南南東 4 9000m 25 94 1009
25 01:40 南西 3 8000m 29 89 1009 弱いしゅう雨
24 22:42 西南西 5 5000m 25 100 1012 雷雨
24 21:40 南南西 5 10km以上 27 94 1011
24 20:40 南西 7 9000m 28 89 1010 弱い雷雨
24 20:10 西南西 6 10km以上 28 89 1010
24 19:40 南南西 5 9000m 27 94 1010
24 17:40 西南西 5 9000m 27 94 1009 弱い雷雨
24 16:40 西南西 5 5000m 26 94 1008
24 12:40 南西 6 10km以上 30 79 1009
24 10:40 西南西 4 10km以上 29 84 1010
24 09:40 南西 6 10km以上 29 79 1010
VCBI 252310Z 17006KT 150V210 9999 VCTS SCT017 FEW019CB 25/25 Q1009 NOSIG RMK CB S
VCBI 252210Z 14004KT 110V190 9999 -SHRA SCT016 25/25 Q1009 NOSIG
VCBI 252110Z 15006KT 9000 SCT017 26/25 Q1009 NOSIG
VCBI 252010Z 16004KT 9000 SCT016 25/25 Q1010 NOSIG
VCBI 251910Z 16004KT 130V200 9000 SCT016 26/25 Q1011 NOSIG
VCBI 251810Z 17004KT 9000 SCT016 26/25 Q1011 NOSIG
VCBI 251710Z 17005KT 8000 -SHRA SCT016 27/26 Q1011 NOSIG
VCBI 251610Z 20007KT 9999 SCT016 28/26 Q1011 NOSIG
VCBI 251410Z 23010KT 9999 SCT016 28/25 Q1010 NOSIG
VCBI 251310Z 21010KT 9999 FEW016 28/25 Q1009 NOSIG
VCBI 251210Z 23009KT 9999 FEW012 SCT016 FEW019TCU 29/25 Q1008 NOSIG RMK TCU N/NE
VCBI 251110Z 22011KT 9999 FEW012 SCT016 29/25 Q1008 NOSIG
VCBI 251010Z 23011KT 9999 SCT018 30/25 Q1008 NOSIG
VCBI 250810Z 22011KT 9999 FEW014 SCT016 30/26 Q1009 NOSIG
VCBI 250710Z 22010KT 9999 SCT017 FEW019CB 31/26 Q1010 NOSIG RMK CB NW
VCBI 250610Z 21009KT 9999 SCT016 29/26 Q1011 NOSIG
VCBI 250510Z 20005KT 170V230 9999 -SHRA FEW012 SCT016 28/26 Q1011 NOSIG
VCBI 250410Z 16005KT 120V210 9999 FEW014 BKN016 29/26 Q1012 NOSIG
VCBI 250310Z 17005KT 140V200 9999 SCT016 27/26 Q1011 NOSIG
VCBI 250210Z 16007KT 9999 SCT017 26/25 Q1010 NOSIG
VCBI 242310Z 14004KT 9999 FEW018 24/24 Q1009 NOSIG
VCBI 242210Z 15006KT 9000 SCT017 25/24 Q1009 NOSIG
VCBI 242110Z 15007KT 9000 BKN016 25/24 Q1009 NOSIG
VCBI 242010Z 22005KT 140V260 8000 -SHRA SCT016 FEW018CB 29/27 Q1009 NOSIG RMK CB SW
VCBI 241712Z 24010KT 5000 TSRA FEW012 SCT016 SCT018CB 25/25 Q1012 NOSIG RMK CB N/NE/E/W/NW
VCBI 241610Z 20010KT 9999 TS SCT016 SCT018CB 27/26 Q1011 NOSIG RMK CB N/NE/E/SE/S
VCBI 241510Z 23013KT 9000 -TSRA SCT016 FEW018CB 28/26 Q1010 NOSIG RMK CB NE/E/SE
VCBI 241440Z 24012KT 9999 TS SCT016 FEW018CB 28/26 Q1010 NOSIG RMK CB NE/E/SE
VCBI 241410Z 21010KT 150V240 9000 SCT016 FEW018CB 27/26 Q1010 RESH NOSIG RMK CB W/NW
VCBI 241210Z 24009KT 9000 -TSRA FEW012 SCT016 SCT018CB 27/26 Q1009 NOSIG RMK CB N/NE/E/SE/NW
VCBI 241110Z 25010KT 220V310 5000 TS FEW012 SCT016 SCT018CB 26/25 Q1008 NOSIG RMK CB?N/NE/E/SE/S
VCBI 240710Z 22012KT 9999 FEW014 BKN017 30/26 Q1009 NOSIG
VCBI 240510Z 25008KT 220V280 9999 FEW014 SCT016 FEW019CB 29/26 Q1010 -RESHRA NOSIG RMK CB N/NW
VCBI 240410Z 23012KT 9999 FEW012 BKN016 FEW018CB 29/25 Q1010 NOSIG RMK CB N/NW